Redwood City, CA

11:22 AM PDT op 02 augustus 2015 (GMT -0700)
San Carlos | | Change Station
CLOSE
Current Station
Luchthaven
Location: San Carlos,
Geometrische hoogte: 3 ft
Nabije weerstations

Hoogte 3 ft 37.51 °N, 122.25 °W | Updated 27 minutes ago

Merendeels bewolkt
Merendeels bewolkt
68 °F
Voelt als 68 °F
N
7
Wind Variabel Wind van west

Vandaag
Hoog -- | Laag -- °F
--% Kans op neerslag
Gisteren
Hoog -- | Laag -- °F
Precip. -- inches
6:13 AM 8:16 PM
Afnemende maan, 92% visible
Druk 30.00 inches
Zicht 10.0 mijlen
Wolken Licht bewolkt 2000 ft
Merendeels bewolkt 20000 ft
Dauwpunt 57 °F
Vochtigheid 68%
Neerslag 0.00 inches
Dikte sneeuw Niet beschikbaar.
UV 4 van de 12
Pollen 4.20 van de 12
Luchtkwaliteit Niet beschikbaar.
Flu Activity Niet beschikbaar.
METAR KSQL 021755Z 26006KT 10SM SCT020 BKN200 20/14 A3000

More Conditions Fewer Conditions

Druk 30.00 inches
Zicht 10.0 mijlen
Wolken Licht bewolkt 2000 ft
Merendeels bewolkt 20000 ft
Dauwpunt 57 °F
Vochtigheid 68%
Neerslag 0.00 inches
Dikte sneeuw Niet beschikbaar.
UV 4 van de 12
Pollen 4.20 van de 12
Luchtkwaliteit Niet beschikbaar.
Flu Activity Niet beschikbaar.
METAR KSQL 021755Z 26006KT 10SM SCT020 BKN200 20/14 A3000

More Conditions Fewer Conditions

10-Day Weather Forecast

×

Almanac

Astronomie

Aug. 02, 2015 Opkomst Ondergang
Werkelijke tijd
Burgerlijke schemering
Nautische schemering
Astronomische schemering
Maan
Golflengte van het zichtbare licht
Daglengte
Tomorrow will be .
, % of the Moon is Illuminated

Extremen vandaag

State Highs State Lows

Community

WunderPhotos

Upload Photos

1,843,333 foto’s ge-upload!

WunderBlogs® & News

Nearby

Luchtkwaliteit

  Luchtkwaliteit LK-index Verontreinigende stof
Not available.

Dikte sneeuw

Station Depth Geometrische hoogte

Aardbevingen

Stad Distance Mag. Time & Date
Minimum magnitude displayed is 2.5.

Watertemperatuur langs de kust

Plaats Temperatuur

Stations

Nabije weerstations

Locatie station Temp. Gevoelstemperatuur Dauwpunt Vochtigheid Wind Precip. Hoogte Geactualiseerd Type